Boggan Bend, Mississippi
Current Conditions -  °F | °C
As of 7:53 AM on Saturday 22 Nov 2014 (Local Time) from KTUP Reporting Station
Clear Clear  
Wind Chill: 45°   Ceiling: Unl
Heat Index: 47°   Visibility: 10mi
Dew Point: 41°   Wind: 5mph
Humidity: 80%   Direction: 200°SSW
Pressure: 30.33"   Gusts: NA
Location:  34.433°N, 88.7018°W
Report Text: KTUP 221353Z 20004KT 10SM CLR 08/05 A3033 RMK AO2 SLP269 T00830050 $
Loading
Personal Weather Stations






























Interactive Weather Map New forecast layout! Learn more

10-Day Weather Forecast

Advertisements
Track Severe Weather on mobile